sensor_id;sensor_type;location;lat;lon;timestamp;P1;durP1;ratioP1;P2;durP2;ratioP2
72201;SDS011;60105;54.956;73.412;2023-01-13T00:01:25;6.65;;;4.97;;
72201;SDS011;60105;54.956;73.412;2023-01-13T00:03:55;6.57;;;4.77;;
72201;SDS011;60105;54.956;73.412;2023-01-13T00:06:23;10.98;;;5.80;;
72201;SDS011;60105;54.956;73.412;2023-01-13T00:08:53;5.32;;;3.50;;
72201;SDS011;60105;54.956;73.412;2023-01-13T00:11:20;7.00;;;4.20;;
72201;SDS011;60105;54.956;73.412;2023-01-13T00:13:47;7.30;;;3.90;;
72201;SDS011;60105;54.956;73.412;2023-01-13T00:16:14;6.13;;;4.03;;
72201;SDS011;60105;54.956;73.412;2023-01-13T00:18:52;7.65;;;4.68;;
72201;SDS011;60105;54.956;73.412;2023-01-13T00:21:19;6.07;;;4.35;;
72201;SDS011;60105;54.956;73.412;2023-01-13T00:23:46;5.68;;;4.30;;
72201;SDS011;60105;54.956;73.412;2023-01-13T00:26:16;8.65;;;6.78;;
72201;SDS011;60105;54.956;73.412;2023-01-13T00:28:55;7.57;;;4.60;;
72201;SDS011;60105;54.956;73.412;2023-01-13T00:31:23;10.50;;;4.05;;
72201;SDS011;60105;54.956;73.412;2023-01-13T00:33:49;12.32;;;5.45;;
72201;SDS011;60105;54.956;73.412;2023-01-13T00:36:26;5.40;;;3.95;;
72201;SDS011;60105;54.956;73.412;2023-01-13T00:38:52;7.88;;;4.78;;
72201;SDS011;60105;54.956;73.412;2023-01-13T00:41:20;7.83;;;4.87;;
72201;SDS011;60105;54.956;73.412;2023-01-13T00:43:48;6.85;;;4.63;;
72201;SDS011;60105;54.956;73.412;2023-01-13T00:46:15;11.52;;;5.32;;
72201;SDS011;60105;54.956;73.412;2023-01-13T00:48:42;11.25;;;4.25;;
72201;SDS011;60105;54.956;73.412;2023-01-13T00:53:51;7.33;;;4.17;;
72201;SDS011;60105;54.956;73.412;2023-01-13T00:56:21;6.75;;;3.88;;
72201;SDS011;60105;54.956;73.412;2023-01-13T00:58:48;10.80;;;5.25;;
72201;SDS011;60105;54.956;73.412;2023-01-13T01:01:17;8.13;;;3.75;;
72201;SDS011;60105;54.956;73.412;2023-01-13T01:03:49;7.35;;;4.75;;
72201;SDS011;60105;54.956;73.412;2023-01-13T01:06:22;7.13;;;3.90;;
72201;SDS011;60105;54.956;73.412;2023-01-13T01:08:50;9.95;;;4.22;;
72201;SDS011;60105;54.956;73.412;2023-01-13T01:11:21;9.48;;;4.10;;
72201;SDS011;60105;54.956;73.412;2023-01-13T01:13:50;6.25;;;3.60;;
72201;SDS011;60105;54.956;73.412;2023-01-13T01:16:22;10.40;;;5.20;;
72201;SDS011;60105;54.956;73.412;2023-01-13T01:18:49;9.47;;;4.83;;
72201;SDS011;60105;54.956;73.412;2023-01-13T01:21:22;7.05;;;4.80;;
72201;SDS011;60105;54.956;73.412;2023-01-13T01:23:50;12.15;;;5.95;;
72201;SDS011;60105;54.956;73.412;2023-01-13T01:26:18;11.57;;;5.22;;
72201;SDS011;60105;54.956;73.412;2023-01-13T01:28:56;7.60;;;4.70;;
72201;SDS011;60105;54.956;73.412;2023-01-13T01:31:33;10.03;;;4.40;;
72201;SDS011;60105;54.956;73.412;2023-01-13T01:34:03;9.45;;;5.18;;
72201;SDS011;60105;54.956;73.412;2023-01-13T01:36:33;7.72;;;5.35;;
72201;SDS011;60105;54.956;73.412;2023-01-13T01:39:19;7.05;;;4.45;;
72201;SDS011;60105;54.956;73.412;2023-01-13T01:41:46;9.77;;;5.70;;
72201;SDS011;60105;54.956;73.412;2023-01-13T01:44:51;7.40;;;6.00;;
72201;SDS011;60105;54.956;73.412;2023-01-13T01:47:23;7.90;;;4.57;;
72201;SDS011;60105;54.956;73.412;2023-01-13T01:50:01;13.18;;;5.65;;
72201;SDS011;60105;54.956;73.412;2023-01-13T01:52:30;11.20;;;5.03;;
72201;SDS011;60105;54.956;73.412;2023-01-13T01:57:28;6.93;;;5.10;;
72201;SDS011;60105;54.956;73.412;2023-01-13T02:00:05;10.15;;;6.22;;
72201;SDS011;60105;54.956;73.412;2023-01-13T02:02:49;9.35;;;5.07;;
72201;SDS011;60105;54.956;73.412;2023-01-13T02:05:17;11.90;;;6.40;;
72201;SDS011;60105;54.956;73.412;2023-01-13T02:07:44;9.50;;;5.25;;
72201;SDS011;60105;54.956;73.412;2023-01-13T02:10:14;8.33;;;4.80;;
72201;SDS011;60105;54.956;73.412;2023-01-13T02:12:53;11.30;;;4.82;;
72201;SDS011;60105;54.956;73.412;2023-01-13T02:18:30;10.63;;;6.03;;
72201;SDS011;60105;54.956;73.412;2023-01-13T02:24:00;16.57;;;7.57;;
72201;SDS011;60105;54.956;73.412;2023-01-13T02:27:39;24.63;;;9.68;;
72201;SDS011;60105;54.956;73.412;2023-01-13T02:30:31;29.33;;;12.55;;
72201;SDS011;60105;54.956;73.412;2023-01-13T02:36:19;32.38;;;16.95;;
72201;SDS011;60105;54.956;73.412;2023-01-13T02:41:34;41.55;;;19.02;;
72201;SDS011;60105;54.956;73.412;2023-01-13T02:44:27;39.38;;;18.27;;
72201;SDS011;60105;54.956;73.412;2023-01-13T02:47:07;36.25;;;15.38;;
72201;SDS011;60105;54.956;73.412;2023-01-13T02:49:47;39.40;;;15.45;;
72201;SDS011;60105;54.956;73.412;2023-01-13T02:52:35;24.47;;;12.40;;
72201;SDS011;60105;54.956;73.412;2023-01-13T02:55:13;30.20;;;14.50;;
72201;SDS011;60105;54.956;73.412;2023-01-13T02:57:43;32.88;;;13.35;;
72201;SDS011;60105;54.956;73.412;2023-01-13T03:00:14;26.38;;;13.45;;
72201;SDS011;60105;54.956;73.412;2023-01-13T03:02:41;28.38;;;12.82;;
72201;SDS011;60105;54.956;73.412;2023-01-13T03:05:17;27.90;;;13.17;;
72201;SDS011;60105;54.956;73.412;2023-01-13T03:10:44;36.08;;;14.90;;
72201;SDS011;60105;54.956;73.412;2023-01-13T03:21:56;24.42;;;12.77;;
72201;SDS011;60105;54.956;73.412;2023-01-13T03:27:07;26.08;;;11.90;;
72201;SDS011;60105;54.956;73.412;2023-01-13T03:29:42;24.23;;;12.38;;
72201;SDS011;60105;54.956;73.412;2023-01-13T03:35:06;25.88;;;11.90;;
72201;SDS011;60105;54.956;73.412;2023-01-13T03:37:55;19.67;;;11.20;;
72201;SDS011;60105;54.956;73.412;2023-01-13T03:40:31;26.95;;;12.45;;
72201;SDS011;60105;54.956;73.412;2023-01-13T03:43:03;27.63;;;12.93;;
72201;SDS011;60105;54.956;73.412;2023-01-13T03:46:06;29.13;;;12.83;;
72201;SDS011;60105;54.956;73.412;2023-01-13T03:48:38;27.38;;;13.13;;
72201;SDS011;60105;54.956;73.412;2023-01-13T03:51:08;29.38;;;14.75;;
72201;SDS011;60105;54.956;73.412;2023-01-13T03:53:52;31.13;;;13.70;;
72201;SDS011;60105;54.956;73.412;2023-01-13T03:56:30;27.42;;;10.82;;
72201;SDS011;60105;54.956;73.412;2023-01-13T03:59:09;21.07;;;10.50;;
72201;SDS011;60105;54.956;73.412;2023-01-13T04:04:33;20.98;;;11.82;;
72201;SDS011;60105;54.956;73.412;2023-01-13T04:09:55;15.48;;;8.57;;
72201;SDS011;60105;54.956;73.412;2023-01-13T04:14:52;12.65;;;7.15;;
72201;SDS011;60105;54.956;73.412;2023-01-13T04:17:19;9.02;;;6.30;;
72201;SDS011;60105;54.956;73.412;2023-01-13T04:19:46;12.95;;;6.40;;
72201;SDS011;60105;54.956;73.412;2023-01-13T04:22:22;11.38;;;6.75;;
72201;SDS011;60105;54.956;73.412;2023-01-13T04:24:48;11.67;;;6.67;;
72201;SDS011;60105;54.956;73.412;2023-01-13T04:27:15;9.90;;;5.93;;
72201;SDS011;60105;54.956;73.412;2023-01-13T04:29:41;14.52;;;6.97;;
72201;SDS011;60105;54.956;73.412;2023-01-13T04:32:17;13.07;;;5.60;;
72201;SDS011;60105;54.956;73.412;2023-01-13T04:34:43;16.48;;;6.53;;
72201;SDS011;60105;54.956;73.412;2023-01-13T04:37:09;9.03;;;5.63;;
72201;SDS011;60105;54.956;73.412;2023-01-13T04:39:36;14.13;;;7.25;;
72201;SDS011;60105;54.956;73.412;2023-01-13T04:42:02;10.85;;;6.25;;
72201;SDS011;60105;54.956;73.412;2023-01-13T04:44:28;10.27;;;5.88;;
72201;SDS011;60105;54.956;73.412;2023-01-13T04:47:04;12.80;;;5.88;;
72201;SDS011;60105;54.956;73.412;2023-01-13T04:49:31;13.63;;;7.17;;
72201;SDS011;60105;54.956;73.412;2023-01-13T04:51:57;15.98;;;6.45;;
72201;SDS011;60105;54.956;73.412;2023-01-13T04:54:24;12.07;;;5.97;;
72201;SDS011;60105;54.956;73.412;2023-01-13T04:56:50;13.43;;;6.22;;
72201;SDS011;60105;54.956;73.412;2023-01-13T04:59:21;17.52;;;6.40;;
72201;SDS011;60105;54.956;73.412;2023-01-13T05:01:48;10.33;;;5.43;;
72201;SDS011;60105;54.956;73.412;2023-01-13T05:04:14;17.98;;;6.75;;
72201;SDS011;60105;54.956;73.412;2023-01-13T05:06:50;9.30;;;5.78;;
72201;SDS011;60105;54.956;73.412;2023-01-13T05:09:16;8.82;;;5.18;;
72201;SDS011;60105;54.956;73.412;2023-01-13T05:11:47;11.75;;;5.15;;
72201;SDS011;60105;54.956;73.412;2023-01-13T05:14:36;8.10;;;4.50;;
72201;SDS011;60105;54.956;73.412;2023-01-13T05:17:31;10.80;;;4.97;;
72201;SDS011;60105;54.956;73.412;2023-01-13T05:19:57;15.50;;;6.55;;
72201;SDS011;60105;54.956;73.412;2023-01-13T05:22:24;9.73;;;6.82;;
72201;SDS011;60105;54.956;73.412;2023-01-13T05:25:13;11.57;;;6.28;;
72201;SDS011;60105;54.956;73.412;2023-01-13T05:30:24;8.10;;;4.95;;
72201;SDS011;60105;54.956;73.412;2023-01-13T05:32:51;10.60;;;6.40;;
72201;SDS011;60105;54.956;73.412;2023-01-13T05:35:23;13.50;;;6.75;;
72201;SDS011;60105;54.956;73.412;2023-01-13T05:37:49;7.50;;;5.40;;
72201;SDS011;60105;54.956;73.412;2023-01-13T05:40:26;13.90;;;5.17;;
72201;SDS011;60105;54.956;73.412;2023-01-13T05:43:15;10.10;;;5.22;;
72201;SDS011;60105;54.956;73.412;2023-01-13T05:45:47;11.02;;;6.35;;
72201;SDS011;60105;54.956;73.412;2023-01-13T05:48:19;12.93;;;6.20;;
72201;SDS011;60105;54.956;73.412;2023-01-13T05:50:47;7.93;;;5.60;;
72201;SDS011;60105;54.956;73.412;2023-01-13T05:53:20;13.47;;;5.47;;
72201;SDS011;60105;54.956;73.412;2023-01-13T05:55:47;9.82;;;5.70;;
72201;SDS011;60105;54.956;73.412;2023-01-13T05:58:14;7.78;;;5.93;;
72201;SDS011;60105;54.956;73.412;2023-01-13T06:00:42;10.80;;;6.30;;
72201;SDS011;60105;54.956;73.412;2023-01-13T06:03:13;10.15;;;5.55;;
72201;SDS011;60105;54.956;73.412;2023-01-13T06:05:50;11.50;;;5.17;;
72201;SDS011;60105;54.956;73.412;2023-01-13T06:08:23;9.15;;;5.43;;
72201;SDS011;60105;54.956;73.412;2023-01-13T06:10:49;8.18;;;4.85;;
72201;SDS011;60105;54.956;73.412;2023-01-13T06:13:16;8.02;;;5.30;;
72201;SDS011;60105;54.956;73.412;2023-01-13T06:15:42;10.35;;;6.28;;
72201;SDS011;60105;54.956;73.412;2023-01-13T06:18:17;8.33;;;4.47;;
72201;SDS011;60105;54.956;73.412;2023-01-13T06:20:43;12.40;;;5.18;;
72201;SDS011;60105;54.956;73.412;2023-01-13T06:23:11;10.25;;;6.13;;
72201;SDS011;60105;54.956;73.412;2023-01-13T06:28:18;9.18;;;5.55;;
72201;SDS011;60105;54.956;73.412;2023-01-13T06:30:56;11.97;;;6.00;;
72201;SDS011;60105;54.956;73.412;2023-01-13T06:33:30;9.82;;;5.78;;
72201;SDS011;60105;54.956;73.412;2023-01-13T06:36:00;9.90;;;5.97;;
72201;SDS011;60105;54.956;73.412;2023-01-13T06:38:32;10.23;;;5.45;;
72201;SDS011;60105;54.956;73.412;2023-01-13T06:41:01;8.00;;;6.78;;
72201;SDS011;60105;54.956;73.412;2023-01-13T06:43:28;9.43;;;5.70;;
72201;SDS011;60105;54.956;73.412;2023-01-13T06:45:55;10.52;;;6.18;;
72201;SDS011;60105;54.956;73.412;2023-01-13T06:48:22;7.82;;;5.57;;
72201;SDS011;60105;54.956;73.412;2023-01-13T06:50:52;12.88;;;7.55;;
72201;SDS011;60105;54.956;73.412;2023-01-13T06:53:18;11.93;;;6.80;;
72201;SDS011;60105;54.956;73.412;2023-01-13T06:55:45;14.43;;;6.80;;
72201;SDS011;60105;54.956;73.412;2023-01-13T06:58:11;11.52;;;5.47;;
72201;SDS011;60105;54.956;73.412;2023-01-13T07:00:37;8.95;;;5.57;;
72201;SDS011;60105;54.956;73.412;2023-01-13T07:03:10;9.00;;;6.50;;
72201;SDS011;60105;54.956;73.412;2023-01-13T07:05:38;10.98;;;5.97;;
72201;SDS011;60105;54.956;73.412;2023-01-13T07:08:05;12.60;;;6.10;;
72201;SDS011;60105;54.956;73.412;2023-01-13T07:10:34;12.88;;;7.20;;
72201;SDS011;60105;54.956;73.412;2023-01-13T07:13:02;12.20;;;6.50;;
72201;SDS011;60105;54.956;73.412;2023-01-13T07:18:20;15.55;;;6.22;;
72201;SDS011;60105;54.956;73.412;2023-01-13T07:20:55;11.80;;;6.37;;
72201;SDS011;60105;54.956;73.412;2023-01-13T07:23:23;7.75;;;5.30;;
72201;SDS011;60105;54.956;73.412;2023-01-13T07:25:50;9.32;;;5.60;;
72201;SDS011;60105;54.956;73.412;2023-01-13T07:28:16;9.65;;;6.15;;
72201;SDS011;60105;54.956;73.412;2023-01-13T07:30:52;8.85;;;4.55;;
72201;SDS011;60105;54.956;73.412;2023-01-13T07:33:19;6.27;;;4.63;;
72201;SDS011;60105;54.956;73.412;2023-01-13T07:35:46;5.38;;;4.38;;
72201;SDS011;60105;54.956;73.412;2023-01-13T07:38:14;13.95;;;6.38;;
72201;SDS011;60105;54.956;73.412;2023-01-13T07:40:40;10.45;;;5.88;;
72201;SDS011;60105;54.956;73.412;2023-01-13T07:43:11;12.40;;;5.55;;
72201;SDS011;60105;54.956;73.412;2023-01-13T07:46:02;9.07;;;5.40;;
72201;SDS011;60105;54.956;73.412;2023-01-13T07:48:31;7.10;;;5.55;;
72201;SDS011;60105;54.956;73.412;2023-01-13T07:51:05;8.70;;;4.88;;
72201;SDS011;60105;54.956;73.412;2023-01-13T07:53:36;8.23;;;5.20;;
72201;SDS011;60105;54.956;73.412;2023-01-13T07:56:03;10.80;;;6.20;;
72201;SDS011;60105;54.956;73.412;2023-01-13T07:58:41;9.53;;;6.33;;
72201;SDS011;60105;54.956;73.412;2023-01-13T08:01:12;9.48;;;5.90;;
72201;SDS011;60105;54.956;73.412;2023-01-13T08:03:39;8.68;;;5.00;;
72201;SDS011;60105;54.956;73.412;2023-01-13T08:06:10;10.02;;;5.63;;
72201;SDS011;60105;54.956;73.412;2023-01-13T08:08:38;6.90;;;5.28;;
72201;SDS011;60105;54.956;73.412;2023-01-13T08:11:05;4.93;;;4.43;;
72201;SDS011;60105;54.956;73.412;2023-01-13T08:13:43;11.05;;;4.70;;
72201;SDS011;60105;54.956;73.412;2023-01-13T08:16:11;8.35;;;5.68;;
72201;SDS011;60105;54.956;73.412;2023-01-13T08:18:38;8.02;;;5.20;;
72201;SDS011;60105;54.956;73.412;2023-01-13T08:21:15;6.82;;;5.28;;
72201;SDS011;60105;54.956;73.412;2023-01-13T08:23:51;5.90;;;4.30;;
72201;SDS011;60105;54.956;73.412;2023-01-13T08:26:20;8.70;;;5.40;;
72201;SDS011;60105;54.956;73.412;2023-01-13T08:28:47;5.10;;;4.60;;
72201;SDS011;60105;54.956;73.412;2023-01-13T08:31:22;7.97;;;4.38;;
72201;SDS011;60105;54.956;73.412;2023-01-13T08:33:49;13.32;;;5.78;;
72201;SDS011;60105;54.956;73.412;2023-01-13T08:36:15;6.90;;;5.33;;
72201;SDS011;60105;54.956;73.412;2023-01-13T08:38:43;6.95;;;4.50;;
72201;SDS011;60105;54.956;73.412;2023-01-13T08:41:13;7.60;;;5.38;;
72201;SDS011;60105;54.956;73.412;2023-01-13T08:44:00;8.45;;;4.88;;
72201;SDS011;60105;54.956;73.412;2023-01-13T08:46:32;6.97;;;5.43;;
72201;SDS011;60105;54.956;73.412;2023-01-13T08:49:08;11.10;;;6.33;;
72201;SDS011;60105;54.956;73.412;2023-01-13T08:51:35;7.55;;;5.07;;
72201;SDS011;60105;54.956;73.412;2023-01-13T08:54:01;7.68;;;5.05;;
72201;SDS011;60105;54.956;73.412;2023-01-13T08:56:28;10.05;;;6.25;;
72201;SDS011;60105;54.956;73.412;2023-01-13T08:58:58;15.35;;;6.15;;
72201;SDS011;60105;54.956;73.412;2023-01-13T09:01:25;8.50;;;5.40;;
72201;SDS011;60105;54.956;73.412;2023-01-13T09:03:51;8.50;;;5.25;;
72201;SDS011;60105;54.956;73.412;2023-01-13T09:06:29;7.95;;;5.68;;
72201;SDS011;60105;54.956;73.412;2023-01-13T09:08:55;7.85;;;5.70;;
72201;SDS011;60105;54.956;73.412;2023-01-13T09:11:25;10.75;;;6.03;;
72201;SDS011;60105;54.956;73.412;2023-01-13T09:14:23;10.10;;;5.37;;
72201;SDS011;60105;54.956;73.412;2023-01-13T09:16:55;13.38;;;5.30;;
72201;SDS011;60105;54.956;73.412;2023-01-13T09:19:22;13.32;;;7.30;;
72201;SDS011;60105;54.956;73.412;2023-01-13T09:21:48;11.57;;;6.68;;
72201;SDS011;60105;54.956;73.412;2023-01-13T09:24:17;14.57;;;6.78;;
72201;SDS011;60105;54.956;73.412;2023-01-13T09:26:50;12.53;;;6.73;;
72201;SDS011;60105;54.956;73.412;2023-01-13T09:29:16;13.75;;;8.82;;
72201;SDS011;60105;54.956;73.412;2023-01-13T09:31:43;14.45;;;7.95;;
72201;SDS011;60105;54.956;73.412;2023-01-13T09:34:12;19.45;;;7.07;;
72201;SDS011;60105;54.956;73.412;2023-01-13T09:37:04;10.73;;;6.53;;
72201;SDS011;60105;54.956;73.412;2023-01-13T09:39:32;12.57;;;6.83;;
72201;SDS011;60105;54.956;73.412;2023-01-13T09:45:15;17.23;;;6.43;;
72201;SDS011;60105;54.956;73.412;2023-01-13T09:53:11;11.40;;;7.00;;
72201;SDS011;60105;54.956;73.412;2023-01-13T09:55:52;12.57;;;7.13;;
72201;SDS011;60105;54.956;73.412;2023-01-13T09:58:19;15.93;;;7.70;;
72201;SDS011;60105;54.956;73.412;2023-01-13T10:03:25;11.55;;;7.05;;
72201;SDS011;60105;54.956;73.412;2023-01-13T10:06:01;11.73;;;6.40;;
72201;SDS011;60105;54.956;73.412;2023-01-13T10:08:42;9.45;;;6.45;;
72201;SDS011;60105;54.956;73.412;2023-01-13T10:11:13;10.73;;;5.95;;
72201;SDS011;60105;54.956;73.412;2023-01-13T10:14:00;11.52;;;5.72;;
72201;SDS011;60105;54.956;73.412;2023-01-13T10:19:16;15.63;;;8.03;;
72201;SDS011;60105;54.956;73.412;2023-01-13T10:21:55;16.65;;;8.15;;
72201;SDS011;60105;54.956;73.412;2023-01-13T10:27:37;17.17;;;7.13;;
72201;SDS011;60105;54.956;73.412;2023-01-13T10:30:11;17.65;;;8.45;;
72201;SDS011;60105;54.956;73.412;2023-01-13T10:32:56;14.23;;;7.53;;
72201;SDS011;60105;54.956;73.412;2023-01-13T10:38:45;22.60;;;8.80;;
72201;SDS011;60105;54.956;73.412;2023-01-13T10:43:43;14.80;;;9.52;;
72201;SDS011;60105;54.956;73.412;2023-01-13T10:46:12;20.57;;;9.43;;
72201;SDS011;60105;54.956;73.412;2023-01-13T10:48:50;22.65;;;10.50;;
72201;SDS011;60105;54.956;73.412;2023-01-13T10:51:18;22.48;;;11.38;;
72201;SDS011;60105;54.956;73.412;2023-01-13T10:56:24;18.83;;;10.75;;
72201;SDS011;60105;54.956;73.412;2023-01-13T11:04:37;22.73;;;12.00;;
72201;SDS011;60105;54.956;73.412;2023-01-13T11:07:27;25.60;;;12.23;;
72201;SDS011;60105;54.956;73.412;2023-01-13T11:18:40;22.75;;;10.88;;
72201;SDS011;60105;54.956;73.412;2023-01-13T11:24:11;18.55;;;10.50;;
72201;SDS011;60105;54.956;73.412;2023-01-13T11:26:45;20.07;;;10.43;;
72201;SDS011;60105;54.956;73.412;2023-01-13T11:29:29;15.98;;;8.50;;
72201;SDS011;60105;54.956;73.412;2023-01-13T11:32:15;22.65;;;9.95;;
72201;SDS011;60105;54.956;73.412;2023-01-13T11:34:44;18.52;;;8.07;;
72201;SDS011;60105;54.956;73.412;2023-01-13T11:37:27;20.17;;;8.40;;
72201;SDS011;60105;54.956;73.412;2023-01-13T11:40:05;18.87;;;9.23;;
72201;SDS011;60105;54.956;73.412;2023-01-13T11:42:53;17.30;;;8.18;;
72201;SDS011;60105;54.956;73.412;2023-01-13T11:45:51;18.85;;;8.35;;
72201;SDS011;60105;54.956;73.412;2023-01-13T11:48:28;18.23;;;7.43;;
72201;SDS011;60105;54.956;73.412;2023-01-13T11:51:15;11.63;;;8.13;;
72201;SDS011;60105;54.956;73.412;2023-01-13T11:54:32;23.03;;;7.03;;
72201;SDS011;60105;54.956;73.412;2023-01-13T12:08:08;25.00;;;10.47;;
72201;SDS011;60105;54.956;73.412;2023-01-13T12:16:22;21.17;;;9.77;;
72201;SDS011;60105;54.956;73.412;2023-01-13T12:22:00;15.97;;;9.53;;
72201;SDS011;60105;54.956;73.412;2023-01-13T12:27:43;39.38;;;17.80;;
72201;SDS011;60105;54.956;73.412;2023-01-13T12:36:00;49.03;;;17.30;;
72201;SDS011;60105;54.956;73.412;2023-01-13T12:44:00;30.05;;;16.98;;
72201;SDS011;60105;54.956;73.412;2023-01-13T12:46:53;48.50;;;19.98;;
72201;SDS011;60105;54.956;73.412;2023-01-13T12:49:23;43.13;;;19.30;;
72201;SDS011;60105;54.956;73.412;2023-01-13T12:56:56;41.38;;;19.67;;
72201;SDS011;60105;54.956;73.412;2023-01-13T13:04:43;39.47;;;17.92;;
72201;SDS011;60105;54.956;73.412;2023-01-13T13:12:53;33.13;;;15.82;;
72201;SDS011;60105;54.956;73.412;2023-01-13T13:15:45;32.30;;;15.53;;
72201;SDS011;60105;54.956;73.412;2023-01-13T13:18:22;33.28;;;18.42;;
72201;SDS011;60105;54.956;73.412;2023-01-13T13:20:59;51.90;;;22.83;;
72201;SDS011;60105;54.956;73.412;2023-01-13T13:28:59;40.30;;;19.73;;
72201;SDS011;60105;54.956;73.412;2023-01-13T13:37:08;33.40;;;15.75;;
72201;SDS011;60105;54.956;73.412;2023-01-13T13:39:41;34.72;;;15.38;;
72201;SDS011;60105;54.956;73.412;2023-01-13T13:42:28;29.17;;;13.38;;
72201;SDS011;60105;54.956;73.412;2023-01-13T13:45:22;18.48;;;11.88;;
72201;SDS011;60105;54.956;73.412;2023-01-13T13:50:52;14.18;;;8.70;;
72201;SDS011;60105;54.956;73.412;2023-01-13T13:53:26;21.67;;;10.07;;
72201;SDS011;60105;54.956;73.412;2023-01-13T13:55:55;22.27;;;9.90;;
72201;SDS011;60105;54.956;73.412;2023-01-13T13:58:27;22.15;;;9.48;;
72201;SDS011;60105;54.956;73.412;2023-01-13T14:00:55;20.98;;;9.65;;
72201;SDS011;60105;54.956;73.412;2023-01-13T14:06:17;19.30;;;11.00;;
72201;SDS011;60105;54.956;73.412;2023-01-13T14:08:48;24.63;;;12.73;;
72201;SDS011;60105;54.956;73.412;2023-01-13T14:11:21;27.40;;;12.10;;
72201;SDS011;60105;54.956;73.412;2023-01-13T14:14:12;25.52;;;13.00;;
72201;SDS011;60105;54.956;73.412;2023-01-13T14:16:41;22.23;;;12.18;;
72201;SDS011;60105;54.956;73.412;2023-01-13T14:22:14;27.63;;;14.35;;
72201;SDS011;60105;54.956;73.412;2023-01-13T14:24:47;28.65;;;13.75;;
72201;SDS011;60105;54.956;73.412;2023-01-13T14:27:30;33.97;;;13.48;;
72201;SDS011;60105;54.956;73.412;2023-01-13T14:30:06;27.33;;;13.27;;
72201;SDS011;60105;54.956;73.412;2023-01-13T14:32:36;29.13;;;13.07;;
72201;SDS011;60105;54.956;73.412;2023-01-13T14:35:05;35.22;;;14.98;;
72201;SDS011;60105;54.956;73.412;2023-01-13T14:37:39;34.50;;;15.35;;
72201;SDS011;60105;54.956;73.412;2023-01-13T14:43:03;37.22;;;15.35;;
72201;SDS011;60105;54.956;73.412;2023-01-13T14:45:41;35.03;;;13.37;;
72201;SDS011;60105;54.956;73.412;2023-01-13T14:48:19;18.55;;;10.20;;
72201;SDS011;60105;54.956;73.412;2023-01-13T14:50:47;23.38;;;11.18;;
72201;SDS011;60105;54.956;73.412;2023-01-13T14:53:30;21.73;;;9.88;;
72201;SDS011;60105;54.956;73.412;2023-01-13T15:02:01;13.10;;;6.72;;
72201;SDS011;60105;54.956;73.412;2023-01-13T15:04:52;13.95;;;8.23;;
72201;SDS011;60105;54.956;73.412;2023-01-13T15:07:30;13.82;;;7.65;;
72201;SDS011;60105;54.956;73.412;2023-01-13T15:09:58;15.60;;;8.35;;
72201;SDS011;60105;54.956;73.412;2023-01-13T15:12:37;18.77;;;9.03;;
72201;SDS011;60105;54.956;73.412;2023-01-13T15:15:17;19.23;;;10.23;;
72201;SDS011;60105;54.956;73.412;2023-01-13T15:17:51;20.83;;;11.27;;
72201;SDS011;60105;54.956;73.412;2023-01-13T15:20:18;17.13;;;10.00;;
72201;SDS011;60105;54.956;73.412;2023-01-13T15:22:46;16.48;;;8.55;;
72201;SDS011;60105;54.956;73.412;2023-01-13T15:25:14;18.10;;;8.97;;
72201;SDS011;60105;54.956;73.412;2023-01-13T15:27:42;15.35;;;9.48;;
72201;SDS011;60105;54.956;73.412;2023-01-13T15:30:17;24.80;;;10.85;;
72201;SDS011;60105;54.956;73.412;2023-01-13T15:32:56;18.17;;;10.27;;
72201;SDS011;60105;54.956;73.412;2023-01-13T15:35:33;23.52;;;11.35;;
72201;SDS011;60105;54.956;73.412;2023-01-13T15:38:05;20.60;;;10.77;;
72201;SDS011;60105;54.956;73.412;2023-01-13T15:40:38;27.08;;;12.10;;
72201;SDS011;60105;54.956;73.412;2023-01-13T15:43:05;29.92;;;14.10;;
72201;SDS011;60105;54.956;73.412;2023-01-13T15:45:49;34.42;;;12.50;;
72201;SDS011;60105;54.956;73.412;2023-01-13T15:48:44;31.23;;;14.02;;
72201;SDS011;60105;54.956;73.412;2023-01-13T15:51:11;34.23;;;16.03;;
72201;SDS011;60105;54.956;73.412;2023-01-13T15:53:43;33.67;;;14.60;;
72201;SDS011;60105;54.956;73.412;2023-01-13T15:56:19;30.85;;;14.32;;
72201;SDS011;60105;54.956;73.412;2023-01-13T15:58:59;27.77;;;12.68;;
72201;SDS011;60105;54.956;73.412;2023-01-13T16:01:25;24.25;;;11.00;;
72201;SDS011;60105;54.956;73.412;2023-01-13T16:03:51;23.57;;;10.70;;
72201;SDS011;60105;54.956;73.412;2023-01-13T16:06:19;19.38;;;9.10;;
72201;SDS011;60105;54.956;73.412;2023-01-13T16:09:03;20.73;;;9.93;;
72201;SDS011;60105;54.956;73.412;2023-01-13T16:11:40;21.92;;;9.65;;
72201;SDS011;60105;54.956;73.412;2023-01-13T16:14:11;23.85;;;10.65;;
72201;SDS011;60105;54.956;73.412;2023-01-13T16:16:38;29.47;;;10.67;;
72201;SDS011;60105;54.956;73.412;2023-01-13T16:19:04;21.67;;;9.25;;
72201;SDS011;60105;54.956;73.412;2023-01-13T16:21:40;25.65;;;10.00;;
72201;SDS011;60105;54.956;73.412;2023-01-13T16:24:07;17.60;;;8.77;;
72201;SDS011;60105;54.956;73.412;2023-01-13T16:26:33;22.08;;;9.48;;
72201;SDS011;60105;54.956;73.412;2023-01-13T16:29:02;20.43;;;7.57;;
72201;SDS011;60105;54.956;73.412;2023-01-13T16:31:39;19.17;;;8.43;;
72201;SDS011;60105;54.956;73.412;2023-01-13T16:34:05;22.17;;;8.73;;
72201;SDS011;60105;54.956;73.412;2023-01-13T16:36:33;17.15;;;7.72;;
72201;SDS011;60105;54.956;73.412;2023-01-13T16:39:01;15.13;;;7.32;;
72201;SDS011;60105;54.956;73.412;2023-01-13T16:41:27;15.83;;;8.00;;
72201;SDS011;60105;54.956;73.412;2023-01-13T16:43:54;16.35;;;6.85;;
72201;SDS011;60105;54.956;73.412;2023-01-13T16:46:24;19.65;;;8.82;;
72201;SDS011;60105;54.956;73.412;2023-01-13T16:48:52;14.80;;;7.07;;
72201;SDS011;60105;54.956;73.412;2023-01-13T16:51:25;22.52;;;9.70;;
72201;SDS011;60105;54.956;73.412;2023-01-13T16:53:51;19.53;;;8.90;;
72201;SDS011;60105;54.956;73.412;2023-01-13T16:59:07;20.90;;;8.80;;
72201;SDS011;60105;54.956;73.412;2023-01-13T17:01:37;20.58;;;8.10;;
72201;SDS011;60105;54.956;73.412;2023-01-13T17:04:16;17.50;;;7.57;;
72201;SDS011;60105;54.956;73.412;2023-01-13T17:06:51;20.50;;;8.87;;
72201;SDS011;60105;54.956;73.412;2023-01-13T17:09:33;17.05;;;7.95;;
72201;SDS011;60105;54.956;73.412;2023-01-13T17:12:00;16.92;;;8.20;;
72201;SDS011;60105;54.956;73.412;2023-01-13T17:14:26;19.60;;;8.80;;
72201;SDS011;60105;54.956;73.412;2023-01-13T17:16:53;12.38;;;7.90;;
72201;SDS011;60105;54.956;73.412;2023-01-13T17:19:20;16.37;;;7.30;;
72201;SDS011;60105;54.956;73.412;2023-01-13T17:21:47;13.70;;;6.82;;
72201;SDS011;60105;54.956;73.412;2023-01-13T17:24:20;13.85;;;7.22;;
72201;SDS011;60105;54.956;73.412;2023-01-13T17:26:49;17.42;;;6.85;;
72201;SDS011;60105;54.956;73.412;2023-01-13T17:29:26;13.82;;;8.35;;
72201;SDS011;60105;54.956;73.412;2023-01-13T17:31:52;19.53;;;8.23;;
72201;SDS011;60105;54.956;73.412;2023-01-13T17:34:18;21.02;;;7.93;;
72201;SDS011;60105;54.956;73.412;2023-01-13T17:36:45;17.35;;;7.55;;
72201;SDS011;60105;54.956;73.412;2023-01-13T17:39:13;13.60;;;7.15;;
72201;SDS011;60105;54.956;73.412;2023-01-13T17:41:51;11.88;;;7.13;;
72201;SDS011;60105;54.956;73.412;2023-01-13T17:44:19;9.43;;;6.33;;
72201;SDS011;60105;54.956;73.412;2023-01-13T17:46:46;10.73;;;6.40;;
72201;SDS011;60105;54.956;73.412;2023-01-13T17:49:14;14.00;;;6.38;;